Terminal Aerodrome Forecast
Issued by NWS

Home | Current Version | Previous Version | Text Only | Print | Product List | Glossary On
Versions: 1 2 3 4 5 6 7 8 9 10 11 12 13
493
FTUS46 KMFR 301137
TAFRBG
TAF
KRBG 301137Z 3012/0112 36002KT P6SM SCT025 OVC035
     FM301800 01012G18KT P6SM SCT025
     FM010000 01014G21KT P6SM SKC
     FM010600 VRB02KT P6SM SKC=

USA.gov is the U.S. government's official web portal to all federal, state and local government web resources and services.